Romeoville, IL

8:23 AM CDT on July 07, 2015 (GMT -0500)
Woodbrook Ln | | Change Station
CLOSE
Current Station
Personal Weather Station
Location: Lockport, IL
Elevation: 648 ft
Nearby Weather Stations

Elev 648 ft 41.62 °N, 88.05 °W | Updated 30 seconds ago

Light Rain
Light Rain
57.2 °F
Feels Like 57.2 °F
N
5.0
Wind Variable Wind from East
Gusts 8.0 mph

Today
High -- | Low -- °F
--% Chance of Precip.
Yesterday
High -- | Low -- °F
Precip. -- in
5:25 AM 8:28 PM
Waning Gibbous, 65% visible
Pressure 29.96 in
Visibility 2.5 miles
Clouds Overcast 900 ft
Dew Point 56 °F
Humidity 97%
Rainfall 0.40 in
Snow Depth Not available.
UV 1 out of 12
Pollen .60 out of 12
Air Quality Not available.
Flu Activity Not available.
METAR KLOT 071255Z AUTO 04019G22KT 2 1/2SM -RA OVC009 15/14 A2996 RMK AO2 P0004 T01460140

More Conditions Fewer Conditions

Pressure 29.96 in
Visibility 2.5 miles
Clouds Overcast 900 ft
Dew Point 56 °F
Humidity 97%
Rainfall 0.40 in
Snow Depth Not available.
UV 1 out of 12
Pollen .60 out of 12
Air Quality Not available.
Flu Activity Not available.
METAR KLOT 071255Z AUTO 04019G22KT 2 1/2SM -RA OVC009 15/14 A2996 RMK AO2 P0004 T01460140

More Conditions Fewer Conditions

10-Day Weather Forecast

×

Almanac

Astronomy

Jul. 07, 2015 Rise Set
Actual Time
Civil Twilight
Nautical Twilight
Astronomical Twilight
Moon
Length of Visible Light
Length of Day
Tomorrow will be .
, % of the Moon is Illuminated

Today's Extremes

State Highs State Lows

Community

WunderPhotos

Upload Photos

1,835,792 photos uploaded!

WunderBlogs® & News

Nearby

Air Quality

  Air Quality AQ Index Pollutant
Not available.

Snow Depth

Station Depth Elevation

Earthquake Activity

City Distance Mag. Time & Date
Minimum magnitude displayed is 2.5.

Coastal Water Temperatures

Place Temperature

Stations

Nearby Weather Stations

Station Location Temp. Windchill Dew Point Humidity Wind Precip. Elev Updated Type